createdAt,value
2023-01-17T00:01:17.023Z,14.93
2023-01-17T00:04:02.632Z,14.94
2023-01-17T00:06:47.763Z,14.94
2023-01-17T00:09:33.682Z,14.94
2023-01-17T00:12:02.257Z,14.93
2023-01-17T00:14:29.035Z,14.92
2023-01-17T00:16:55.612Z,14.91
2023-01-17T00:19:40.779Z,14.90
2023-01-17T00:22:30.195Z,14.88
2023-01-17T00:25:15.514Z,14.88
2023-01-17T00:27:42.003Z,14.87
2023-01-17T00:30:10.146Z,14.86
2023-01-17T00:32:36.666Z,14.86
2023-01-17T00:35:03.171Z,14.85
2023-01-17T00:37:29.663Z,14.86
2023-01-17T00:39:56.121Z,14.85
2023-01-17T00:42:22.569Z,14.86
2023-01-17T00:45:07.894Z,14.87
2023-01-17T00:47:53.206Z,14.87
2023-01-17T00:50:38.439Z,14.86
2023-01-17T00:53:23.744Z,14.86
2023-01-17T00:56:09.078Z,14.87
2023-01-17T00:58:54.319Z,14.86
2023-01-17T01:01:39.365Z,14.85
2023-01-17T01:04:24.653Z,14.84
2023-01-17T01:07:09.519Z,14.83
2023-01-17T01:09:54.435Z,14.82
2023-01-17T01:12:39.783Z,14.81
2023-01-17T01:15:25.661Z,14.82
2023-01-17T01:18:10.578Z,14.79
2023-01-17T01:20:55.926Z,14.78
2023-01-17T01:23:41.308Z,14.77
2023-01-17T01:26:26.593Z,14.76
2023-01-17T01:29:11.411Z,14.76
2023-01-17T01:31:56.761Z,14.75
2023-01-17T01:34:23.268Z,14.75
2023-01-17T01:36:50.902Z,14.75
2023-01-17T01:39:17.430Z,14.75
2023-01-17T01:41:43.970Z,14.75
2023-01-17T01:44:41.436Z,14.74
2023-01-17T01:47:29.509Z,14.76
2023-01-17T01:49:58.440Z,14.76
2023-01-17T01:52:29.698Z,14.78
2023-01-17T01:55:02.328Z,14.78
2023-01-17T01:57:33.953Z,14.77
2023-01-17T02:00:31.503Z,14.76
2023-01-17T02:03:02.500Z,14.79
2023-01-17T02:05:29.301Z,14.78
2023-01-17T02:08:03.274Z,14.77
2023-01-17T02:10:37.889Z,14.77
2023-01-17T02:13:05.538Z,14.78
2023-01-17T02:15:56.771Z,14.75
2023-01-17T02:18:53.097Z,14.75
2023-01-17T02:21:26.233Z,14.76
2023-01-17T02:24:20.352Z,14.74
2023-01-17T02:26:58.184Z,14.75
2023-01-17T02:29:42.055Z,14.75
2023-01-17T02:32:16.396Z,14.75
2023-01-17T02:35:10.674Z,14.74
2023-01-17T02:37:57.821Z,14.74
2023-01-17T02:40:38.260Z,14.72
2023-01-17T02:43:10.716Z,14.73
2023-01-17T02:45:37.959Z,14.74
2023-01-17T02:48:08.108Z,14.74
2023-01-17T02:51:21.022Z,14.73
2023-01-17T02:53:50.154Z,14.74
2023-01-17T02:56:39.567Z,14.72
2023-01-17T02:59:21.316Z,14.73
2023-01-17T03:01:59.574Z,14.73
2023-01-17T03:05:06.790Z,14.72
2023-01-17T03:07:34.244Z,14.74
2023-01-17T03:10:03.553Z,14.73
2023-01-17T03:12:32.151Z,14.73
2023-01-17T03:14:58.720Z,14.71
2023-01-17T03:17:30.992Z,14.70
2023-01-17T03:19:57.819Z,14.68
2023-01-17T03:22:24.509Z,14.68
2023-01-17T03:24:50.993Z,14.67
2023-01-17T03:27:17.501Z,14.65
2023-01-17T03:29:44.023Z,14.65
2023-01-17T03:32:10.520Z,14.64
2023-01-17T03:34:37.080Z,14.64
2023-01-17T03:37:03.610Z,14.64
2023-01-17T03:39:30.133Z,14.64
2023-01-17T03:41:56.707Z,14.64
2023-01-17T03:44:23.187Z,14.64
2023-01-17T03:46:49.717Z,14.64
2023-01-17T03:49:16.713Z,14.64
2023-01-17T03:51:43.289Z,14.64
2023-01-17T03:54:10.120Z,14.66
2023-01-17T03:56:36.652Z,14.65
2023-01-17T03:59:03.244Z,14.66
2023-01-17T04:01:29.787Z,14.66
2023-01-17T04:03:56.365Z,14.66
2023-01-17T04:06:22.921Z,14.66
2023-01-17T04:08:49.475Z,14.64
2023-01-17T04:11:15.973Z,14.65
2023-01-17T04:13:42.467Z,14.64
2023-01-17T04:16:15.441Z,14.63
2023-01-17T04:18:42.040Z,14.63
2023-01-17T04:21:08.659Z,14.63
2023-01-17T04:23:35.469Z,14.60
2023-01-17T04:26:03.579Z,14.61
2023-01-17T04:28:30.195Z,14.60
2023-01-17T04:31:00.275Z,14.59
2023-01-17T04:33:26.977Z,14.58
2023-01-17T04:35:54.132Z,14.58
2023-01-17T04:38:20.898Z,14.56
2023-01-17T04:40:48.529Z,14.56
2023-01-17T04:43:16.037Z,14.56
2023-01-17T04:45:42.785Z,14.56
2023-01-17T04:48:12.528Z,14.56
2023-01-17T04:50:39.762Z,14.57
2023-01-17T04:53:06.298Z,14.56
2023-01-17T04:55:32.880Z,14.56
2023-01-17T04:57:59.419Z,14.55
2023-01-17T05:00:25.966Z,14.55
2023-01-17T05:02:52.542Z,14.54
2023-01-17T05:05:19.028Z,14.54
2023-01-17T05:07:53.305Z,14.53
2023-01-17T05:10:19.829Z,14.53
2023-01-17T05:12:56.994Z,14.51
2023-01-17T05:15:24.450Z,14.51
2023-01-17T05:17:52.732Z,14.50
2023-01-17T05:20:20.371Z,14.50
2023-01-17T05:22:56.410Z,14.47
2023-01-17T05:25:31.321Z,14.47
2023-01-17T05:28:01.289Z,14.48
2023-01-17T05:30:32.751Z,14.46
2023-01-17T05:32:59.555Z,14.47
2023-01-17T05:35:32.615Z,14.46
2023-01-17T05:37:59.381Z,14.46
2023-01-17T05:40:28.941Z,14.46
2023-01-17T05:42:57.844Z,14.46
2023-01-17T05:45:27.427Z,14.45
2023-01-17T05:47:55.341Z,14.46
2023-01-17T05:50:25.667Z,14.45
2023-01-17T05:52:54.724Z,14.44
2023-01-17T05:55:22.128Z,14.44
2023-01-17T05:57:49.248Z,14.43
2023-01-17T06:00:16.822Z,14.43
2023-01-17T06:02:44.432Z,14.44
2023-01-17T06:05:11.387Z,14.44
2023-01-17T06:07:38.187Z,14.42
2023-01-17T06:10:05.522Z,14.41
2023-01-17T06:12:32.384Z,14.41
2023-01-17T06:14:59.007Z,14.41
2023-01-17T06:17:25.527Z,14.41
2023-01-17T06:19:52.007Z,14.40
2023-01-17T06:22:18.549Z,14.40
2023-01-17T06:24:45.176Z,14.38
2023-01-17T06:27:11.763Z,14.38
2023-01-17T06:29:38.246Z,14.39
2023-01-17T06:32:05.253Z,14.38
2023-01-17T06:34:31.816Z,14.37
2023-01-17T06:36:58.369Z,14.36
2023-01-17T06:39:25.117Z,14.35
2023-01-17T06:41:51.609Z,14.35
2023-01-17T06:44:18.121Z,14.35
2023-01-17T06:46:45.078Z,14.36
2023-01-17T06:49:11.700Z,14.36
2023-01-17T06:51:38.227Z,14.35
2023-01-17T06:54:04.804Z,14.36
2023-01-17T06:56:32.309Z,14.35
2023-01-17T06:58:58.981Z,14.36
2023-01-17T07:01:25.623Z,14.36
2023-01-17T07:03:55.247Z,14.37
2023-01-17T07:06:21.867Z,14.38
2023-01-17T07:08:48.873Z,14.36
2023-01-17T07:11:15.573Z,14.37
2023-01-17T07:13:42.084Z,14.37
2023-01-17T07:16:09.079Z,14.36
2023-01-17T07:18:35.632Z,14.35
2023-01-17T07:21:02.139Z,14.35
2023-01-17T07:23:28.652Z,14.35
2023-01-17T07:26:00.231Z,14.33
2023-01-17T07:28:28.194Z,14.32
2023-01-17T07:30:54.849Z,14.32
2023-01-17T07:33:21.754Z,14.32
2023-01-17T07:35:48.460Z,14.30
2023-01-17T07:38:17.757Z,14.30
2023-01-17T07:40:45.107Z,14.30
2023-01-17T07:43:15.269Z,14.29
2023-01-17T07:45:46.644Z,14.29
2023-01-17T07:48:13.645Z,14.28
2023-01-17T07:50:40.204Z,14.28
2023-01-17T07:53:06.723Z,14.29
2023-01-17T07:55:33.538Z,14.28
2023-01-17T07:58:02.286Z,14.26
2023-01-17T08:00:29.454Z,14.26
2023-01-17T08:02:57.976Z,14.26
2023-01-17T08:05:25.270Z,14.27
2023-01-17T08:07:52.085Z,14.27
2023-01-17T08:10:18.834Z,14.26
2023-01-17T08:12:49.987Z,14.25
2023-01-17T08:15:18.056Z,14.26
2023-01-17T08:17:48.843Z,14.25
2023-01-17T08:20:16.586Z,14.25
2023-01-17T08:22:43.090Z,14.26
2023-01-17T08:25:10.096Z,14.26
2023-01-17T08:27:36.837Z,14.26
2023-01-17T08:30:04.181Z,14.25
2023-01-17T08:32:30.696Z,14.25
2023-01-17T08:34:57.434Z,14.26
2023-01-17T08:37:24.466Z,14.26
2023-01-17T08:39:51.173Z,14.26
2023-01-17T08:42:18.072Z,14.27
2023-01-17T08:44:44.641Z,14.28
2023-01-17T08:47:11.213Z,14.28
2023-01-17T08:49:37.731Z,14.30
2023-01-17T08:52:05.276Z,14.32
2023-01-17T08:54:31.837Z,14.36
2023-01-17T08:56:58.487Z,14.38
2023-01-17T08:59:25.021Z,14.41
2023-01-17T09:01:52.544Z,14.43
2023-01-17T09:04:19.317Z,14.46
2023-01-17T09:06:48.189Z,14.49
2023-01-17T09:09:16.907Z,14.52
2023-01-17T09:11:43.449Z,14.55
2023-01-17T09:14:12.928Z,14.60
2023-01-17T09:16:39.467Z,14.64
2023-01-17T09:19:06.031Z,14.71
2023-01-17T09:21:32.746Z,14.75
2023-01-17T09:23:59.253Z,14.79
2023-01-17T09:26:29.299Z,14.81
2023-01-17T09:28:56.795Z,14.85
2023-01-17T09:31:24.109Z,14.89
2023-01-17T09:33:52.024Z,14.92
2023-01-17T09:36:18.883Z,14.95
2023-01-17T09:38:46.185Z,14.98
2023-01-17T09:41:29.251Z,15.00
2023-01-17T09:44:07.738Z,15.03
2023-01-17T09:46:41.886Z,15.06
2023-01-17T09:49:39.174Z,15.08
2023-01-17T09:52:08.526Z,15.11
2023-01-17T09:54:40.735Z,15.13
2023-01-17T09:57:53.036Z,15.16
2023-01-17T10:00:47.292Z,15.19
2023-01-17T10:03:22.842Z,15.24
2023-01-17T10:06:13.006Z,15.29
2023-01-17T10:08:48.439Z,15.36
2023-01-17T10:11:43.154Z,15.38
2023-01-17T10:14:47.242Z,15.43
2023-01-17T10:17:54.206Z,15.45
2023-01-17T10:20:50.894Z,15.47
2023-01-17T10:23:38.143Z,15.46
2023-01-17T10:26:12.444Z,15.46
2023-01-17T10:28:48.594Z,15.44
2023-01-17T10:31:26.515Z,15.43
2023-01-17T10:33:58.277Z,15.43
2023-01-17T10:36:27.918Z,15.41
2023-01-17T10:39:01.517Z,15.40
2023-01-17T10:41:42.245Z,15.40
2023-01-17T10:44:29.443Z,15.40
2023-01-17T10:47:18.262Z,15.39
2023-01-17T10:49:49.082Z,15.40
2023-01-17T10:52:27.833Z,15.38
2023-01-17T10:55:03.903Z,15.38
2023-01-17T10:57:37.684Z,15.38
2023-01-17T11:00:18.162Z,15.36
2023-01-17T11:02:49.573Z,15.38
2023-01-17T11:05:31.001Z,15.33
2023-01-17T11:08:15.733Z,15.31
2023-01-17T11:10:57.175Z,15.32
2023-01-17T11:13:29.154Z,15.31
2023-01-17T11:16:02.187Z,15.31
2023-01-17T11:18:31.611Z,15.33
2023-01-17T11:21:20.780Z,15.34
2023-01-17T11:23:50.840Z,15.36
2023-01-17T11:26:28.477Z,15.36
2023-01-17T11:29:26.643Z,15.37
2023-01-17T11:31:56.166Z,15.41
2023-01-17T11:34:25.579Z,15.44
2023-01-17T11:37:19.256Z,15.49
2023-01-17T11:39:48.200Z,15.53
2023-01-17T11:42:40.997Z,15.58
2023-01-17T11:45:37.329Z,15.63
2023-01-17T11:48:10.965Z,15.68
2023-01-17T11:50:40.486Z,15.72
2023-01-17T11:53:19.096Z,15.74
2023-01-17T11:56:09.610Z,15.78
2023-01-17T11:58:40.208Z,15.84
2023-01-17T12:01:26.041Z,15.87
2023-01-17T12:04:22.798Z,15.91
2023-01-17T12:07:09.304Z,15.96
2023-01-17T12:09:49.733Z,16.00
2023-01-17T12:12:40.804Z,16.04
2023-01-17T12:15:44.940Z,16.08
2023-01-17T12:18:56.077Z,16.11
2023-01-17T12:21:40.672Z,16.16
2023-01-17T12:24:19.194Z,16.19
2023-01-17T12:26:54.727Z,16.22
2023-01-17T12:29:23.905Z,16.25
2023-01-17T12:32:17.286Z,16.27
2023-01-17T12:34:50.852Z,16.32
2023-01-17T12:37:36.967Z,16.34
2023-01-17T12:40:25.478Z,16.36
2023-01-17T12:42:59.048Z,16.38
2023-01-17T12:45:45.208Z,16.40
2023-01-17T12:48:19.905Z,16.42
2023-01-17T12:51:05.855Z,16.44
2023-01-17T12:53:42.285Z,16.47
2023-01-17T12:56:11.472Z,16.49
2023-01-17T12:58:52.001Z,16.51
2023-01-17T13:01:30.898Z,16.53
2023-01-17T13:04:11.070Z,16.56
2023-01-17T13:06:43.679Z,16.57
2023-01-17T13:09:13.998Z,16.59
2023-01-17T13:11:49.749Z,16.61
2023-01-17T13:14:16.487Z,16.62
2023-01-17T13:16:54.631Z,16.66
2023-01-17T13:19:32.097Z,16.68
2023-01-17T13:22:02.252Z,16.70
2023-01-17T13:24:55.664Z,16.72
2023-01-17T13:27:35.341Z,16.75
2023-01-17T13:30:36.453Z,16.75
2023-01-17T13:33:31.651Z,16.78
2023-01-17T13:36:12.973Z,16.80
2023-01-17T13:39:06.024Z,16.83
2023-01-17T13:41:47.348Z,16.84
2023-01-17T13:44:21.603Z,16.87
2023-01-17T13:47:01.104Z,16.88
2023-01-17T13:49:34.195Z,16.91
2023-01-17T13:52:12.073Z,16.92
2023-01-17T13:54:50.760Z,16.93
2023-01-17T13:57:23.377Z,16.94
2023-01-17T13:59:50.191Z,16.98
2023-01-17T14:02:31.899Z,16.96
2023-01-17T14:05:18.266Z,16.97
2023-01-17T14:07:47.868Z,16.99
2023-01-17T14:10:29.005Z,16.97
2023-01-17T14:12:56.319Z,16.98
2023-01-17T14:15:27.010Z,16.98
2023-01-17T14:18:01.755Z,16.98
2023-01-17T14:20:43.132Z,16.97
2023-01-17T14:23:25.170Z,16.94
2023-01-17T14:25:52.625Z,16.95
2023-01-17T14:28:30.022Z,16.94
2023-01-17T14:30:59.026Z,16.92
2023-01-17T14:33:39.510Z,16.89
2023-01-17T14:36:14.321Z,16.89
2023-01-17T14:38:43.754Z,16.84
2023-01-17T14:41:17.584Z,16.80
2023-01-17T14:43:45.410Z,16.78
2023-01-17T14:46:27.622Z,16.73
2023-01-17T14:49:02.689Z,16.70
2023-01-17T14:51:30.007Z,16.68
2023-01-17T14:53:58.936Z,16.63
2023-01-17T14:56:28.074Z,16.60
2023-01-17T14:59:23.720Z,16.54
2023-01-17T15:02:06.683Z,16.54
2023-01-17T15:04:39.891Z,16.49
2023-01-17T15:07:07.563Z,16.48
2023-01-17T15:09:37.735Z,16.45
2023-01-17T15:12:08.404Z,16.43
2023-01-17T15:14:39.686Z,16.39
2023-01-17T15:17:24.939Z,16.37
2023-01-17T15:19:56.742Z,16.36
2023-01-17T15:22:25.963Z,16.35
2023-01-17T15:24:53.819Z,16.34
2023-01-17T15:27:20.875Z,16.33
2023-01-17T15:29:48.054Z,16.29
2023-01-17T15:32:27.944Z,16.26
2023-01-17T15:34:54.598Z,16.27
2023-01-17T15:37:29.798Z,16.23
2023-01-17T15:40:18.832Z,16.20
2023-01-17T15:42:49.941Z,16.20
2023-01-17T15:45:20.181Z,16.17
2023-01-17T15:47:46.975Z,16.15
2023-01-17T15:50:29.955Z,16.11
2023-01-17T15:53:03.641Z,16.11
2023-01-17T15:55:38.671Z,16.08
2023-01-17T15:58:23.033Z,16.06
2023-01-17T16:00:49.603Z,16.04
2023-01-17T16:03:29.968Z,16.01
2023-01-17T16:06:00.149Z,16.00
2023-01-17T16:08:33.003Z,15.96
2023-01-17T16:11:06.046Z,15.95
2023-01-17T16:13:35.750Z,15.94
2023-01-17T16:16:27.214Z,15.92
2023-01-17T16:18:59.971Z,15.90
2023-01-17T16:21:28.871Z,15.89
2023-01-17T16:23:56.352Z,15.88
2023-01-17T16:26:23.703Z,15.85
2023-01-17T16:28:51.167Z,15.84
2023-01-17T16:31:18.530Z,15.83
2023-01-17T16:33:46.059Z,15.82
2023-01-17T16:36:15.117Z,15.79
2023-01-17T16:38:42.766Z,15.78
2023-01-17T16:41:09.649Z,15.76
2023-01-17T16:43:36.514Z,15.76
2023-01-17T16:46:03.106Z,15.74
2023-01-17T16:48:29.815Z,15.73
2023-01-17T16:50:56.400Z,15.73
2023-01-17T16:53:25.423Z,15.75
2023-01-17T16:55:55.517Z,15.74
2023-01-17T16:58:22.329Z,15.73
2023-01-17T17:00:48.958Z,15.71
2023-01-17T17:03:17.570Z,15.68
2023-01-17T17:05:47.047Z,15.67
2023-01-17T17:08:15.268Z,15.66
2023-01-17T17:10:41.790Z,15.63
2023-01-17T17:13:08.411Z,15.64
2023-01-17T17:15:34.997Z,15.63
2023-01-17T17:18:01.597Z,15.64
2023-01-17T17:20:28.235Z,15.63
2023-01-17T17:22:54.763Z,15.63
2023-01-17T17:25:21.546Z,15.61
2023-01-17T17:27:48.064Z,15.60
2023-01-17T17:30:14.872Z,15.60
2023-01-17T17:32:45.405Z,15.58
2023-01-17T17:35:11.935Z,15.57
2023-01-17T17:37:38.684Z,15.57
2023-01-17T17:40:05.855Z,15.55
2023-01-17T17:42:32.802Z,15.53
2023-01-17T17:44:59.303Z,15.54
2023-01-17T17:47:25.771Z,15.52
2023-01-17T17:49:52.520Z,15.51
2023-01-17T17:52:19.080Z,15.50
2023-01-17T17:54:45.593Z,15.49
2023-01-17T17:57:12.198Z,15.47
2023-01-17T17:59:38.738Z,15.47
2023-01-17T18:02:11.036Z,15.45
2023-01-17T18:04:38.271Z,15.45
2023-01-17T18:07:04.966Z,15.44
2023-01-17T18:09:31.518Z,15.43
2023-01-17T18:11:58.273Z,15.42
2023-01-17T18:14:24.864Z,15.41
2023-01-17T18:16:51.760Z,15.41
2023-01-17T18:19:21.099Z,15.40
2023-01-17T18:21:48.689Z,15.41
2023-01-17T18:24:16.995Z,15.39
2023-01-17T18:26:46.253Z,15.38
2023-01-17T18:29:15.755Z,15.38
2023-01-17T18:31:44.294Z,15.38
2023-01-17T18:34:13.632Z,15.36
2023-01-17T18:36:40.605Z,15.37
2023-01-17T18:39:16.079Z,15.34
2023-01-17T18:41:42.734Z,15.34
2023-01-17T18:44:10.003Z,15.33
2023-01-17T18:46:37.501Z,15.31
2023-01-17T18:49:04.827Z,15.30
2023-01-17T18:51:33.315Z,15.30
2023-01-17T18:54:02.854Z,15.28
2023-01-17T18:56:31.027Z,15.27
2023-01-17T18:58:58.045Z,15.26
2023-01-17T19:01:35.390Z,15.24
2023-01-17T19:04:04.192Z,15.23
2023-01-17T19:06:37.513Z,15.20
2023-01-17T19:09:06.395Z,15.22
2023-01-17T19:11:34.131Z,15.20
2023-01-17T19:14:00.713Z,15.19
2023-01-17T19:16:30.265Z,15.17
2023-01-17T19:19:01.689Z,15.17
2023-01-17T19:21:28.551Z,15.16
2023-01-17T19:23:56.731Z,15.15
2023-01-17T19:26:24.975Z,15.14
2023-01-17T19:28:51.772Z,15.14
2023-01-17T19:31:24.126Z,15.11
2023-01-17T19:33:55.977Z,15.11
2023-01-17T19:36:28.040Z,15.11
2023-01-17T19:39:04.434Z,15.10
2023-01-17T19:41:36.572Z,15.07
2023-01-17T19:44:08.422Z,15.06
2023-01-17T19:46:35.842Z,15.06
2023-01-17T19:49:05.498Z,15.03
2023-01-17T19:51:32.015Z,15.04
2023-01-17T19:54:01.842Z,15.01
2023-01-17T19:56:29.758Z,15.00
2023-01-17T19:59:00.690Z,14.99
2023-01-17T20:01:30.482Z,14.97
2023-01-17T20:03:58.415Z,14.98
2023-01-17T20:06:29.003Z,14.96
2023-01-17T20:08:56.461Z,14.95
2023-01-17T20:11:24.784Z,14.95
2023-01-17T20:13:54.209Z,14.94
2023-01-17T20:16:21.349Z,14.92
2023-01-17T20:18:48.319Z,14.91
2023-01-17T20:21:19.233Z,14.90
2023-01-17T20:23:47.484Z,14.89
2023-01-17T20:26:15.862Z,14.88
2023-01-17T20:28:44.427Z,14.86
2023-01-17T20:31:14.293Z,14.85
2023-01-17T20:33:43.120Z,14.85
2023-01-17T20:36:12.368Z,14.85
2023-01-17T20:38:45.504Z,14.82
2023-01-17T20:41:39.629Z,14.79
2023-01-17T20:44:09.263Z,14.81
2023-01-17T20:46:40.607Z,14.80
2023-01-17T20:49:14.742Z,14.79
2023-01-17T20:51:44.063Z,14.78
2023-01-17T20:54:14.262Z,14.77
2023-01-17T20:56:41.509Z,14.76
2023-01-17T20:59:12.055Z,14.74
2023-01-17T21:01:39.249Z,14.75
2023-01-17T21:04:10.034Z,14.72
2023-01-17T21:06:38.851Z,14.72
2023-01-17T21:09:07.279Z,14.71
2023-01-17T21:11:34.431Z,14.71
2023-01-17T21:14:01.877Z,14.70
2023-01-17T21:16:28.928Z,14.70
2023-01-17T21:18:55.737Z,14.68
2023-01-17T21:21:25.260Z,14.67
2023-01-17T21:23:54.476Z,14.66
2023-01-17T21:26:22.788Z,14.65
2023-01-17T21:28:50.704Z,14.65
2023-01-17T21:31:26.610Z,14.62
2023-01-17T21:33:57.173Z,14.62
2023-01-17T21:36:26.116Z,14.63
2023-01-17T21:38:56.896Z,14.63
2023-01-17T21:41:26.413Z,14.63
2023-01-17T21:44:16.458Z,14.61
2023-01-17T21:46:43.008Z,14.63
2023-01-17T21:49:11.762Z,14.63
2023-01-17T21:52:06.202Z,14.63
2023-01-17T21:54:50.902Z,14.61
2023-01-17T21:57:38.745Z,14.62
2023-01-17T22:00:08.758Z,14.65
2023-01-17T22:02:35.327Z,14.64
2023-01-17T22:05:01.869Z,14.62
2023-01-17T22:07:29.036Z,14.62
2023-01-17T22:09:56.896Z,14.61
2023-01-17T22:12:23.861Z,14.61
2023-01-17T22:14:50.351Z,14.60
2023-01-17T22:17:16.875Z,14.58
2023-01-17T22:19:45.877Z,14.56
2023-01-17T22:22:12.509Z,14.57
2023-01-17T22:24:40.291Z,14.57
2023-01-17T22:27:09.875Z,14.56
2023-01-17T22:29:39.254Z,14.55
2023-01-17T22:32:05.780Z,14.55
2023-01-17T22:34:32.280Z,14.54
2023-01-17T22:36:58.987Z,14.53
2023-01-17T22:39:25.508Z,14.53
2023-01-17T22:41:52.028Z,14.52
2023-01-17T22:44:18.543Z,14.52
2023-01-17T22:46:45.156Z,14.52
2023-01-17T22:49:13.221Z,14.52
2023-01-17T22:51:39.732Z,14.51
2023-01-17T22:54:06.330Z,14.52
2023-01-17T22:56:33.780Z,14.51
2023-01-17T22:59:01.841Z,14.52
2023-01-17T23:01:30.930Z,14.52
2023-01-17T23:04:00.273Z,14.52
2023-01-17T23:06:32.231Z,14.52
2023-01-17T23:09:02.392Z,14.52
2023-01-17T23:11:39.158Z,14.52
2023-01-17T23:14:11.577Z,14.52
2023-01-17T23:16:58.642Z,14.51
2023-01-17T23:19:28.042Z,14.50
2023-01-17T23:22:16.384Z,14.51
2023-01-17T23:24:56.031Z,14.49
2023-01-17T23:28:01.914Z,14.47
2023-01-17T23:30:40.198Z,14.47
2023-01-17T23:33:09.224Z,14.46
2023-01-17T23:35:41.692Z,14.46
2023-01-17T23:38:29.023Z,14.43
2023-01-17T23:41:25.780Z,14.44
2023-01-17T23:43:54.006Z,14.44
2023-01-17T23:46:20.615Z,14.43
2023-01-17T23:48:47.716Z,14.42
2023-01-17T23:51:14.430Z,14.42
2023-01-17T23:53:41.491Z,14.41
2023-01-17T23:56:18.472Z,14.40
2023-01-17T23:58:45.476Z,14.41
